VDPP/PNH METAR and TAF weather

Enter ICAO airport designator
Station Type Date Time Source
VDPP METAR 2018/12/11 22:30 UTC NOAA

VDPP 112230Z 03005KT 9000 SCT017 26/23 Q1010


Station Type Date Time Source
VDPP Decoded METAR 2018/12/11 22:30 UTC NOAA

Phnom-Penh / Pochentong, Cambodia (VDPP) 11-33N 104-51E 10M
Dec 11, 2018 - 05:30 PM EST / 2018.12.11 2230 UTC
Wind: from the NNE (030 degrees) at 6 MPH (5 KT):0
Visibility: 5 mile(s):0
Sky conditions: partly cloudy
Temperature: 78 F (26 C)
Dew Point: 73 F (23 C)
Relative Humidity: 83%
Pressure (altimeter): 29.83 in. Hg (1010 hPa)
ob: VDPP 112230Z 03005KT 9000 SCT017 26/23 Q1010
cycle: 22

Station Type Date Time Source
VDPP TAF 2018/12/11 18:00 UTC NOAA

TAF VDPP 111700Z 1118/1212 02006KT 9999 SCT017
TEMPO 1206/1211 SCT015 FEW017CB SCT040


Example: see airport list